createdAt,value
2018-02-25T00:01:19.293Z,68
2018-02-25T00:06:19.444Z,68
2018-02-25T00:11:19.619Z,68
2018-02-25T00:16:19.038Z,45
2018-02-25T00:21:19.077Z,45
2018-02-25T00:26:19.108Z,68
2018-02-25T00:31:19.193Z,68
2018-02-25T00:36:19.256Z,68
2018-02-25T00:41:19.423Z,68
2018-02-25T00:46:19.424Z,68
2018-02-25T00:51:19.637Z,68
2018-02-25T00:56:19.634Z,68
2018-02-25T01:01:18.768Z,68
2018-02-25T01:06:18.863Z,68
2018-02-25T01:11:18.939Z,68
2018-02-25T01:16:18.985Z,68
2018-02-25T01:21:19.012Z,68
2018-02-25T01:26:19.064Z,68
2018-02-25T01:31:19.125Z,68
2018-02-25T01:36:19.672Z,68
2018-02-25T01:41:19.703Z,68
2018-02-25T01:46:18.773Z,68
2018-02-25T01:51:18.781Z,68
2018-02-25T01:56:18.765Z,68
2018-02-25T02:01:18.802Z,68
2018-02-25T02:06:18.871Z,68
2018-02-25T02:11:18.931Z,68
2018-02-25T02:16:18.975Z,68
2018-02-25T02:21:19.015Z,68
2018-02-25T02:26:19.083Z,68
2018-02-25T02:31:19.164Z,68
2018-02-25T02:36:19.181Z,68
2018-02-25T02:41:19.333Z,68
2018-02-25T02:46:19.384Z,68
2018-02-25T02:51:19.450Z,68
2018-02-25T02:56:19.443Z,68
2018-02-25T03:01:19.547Z,68
2018-02-25T03:06:19.737Z,68
2018-02-25T03:11:19.769Z,68
2018-02-25T03:16:18.962Z,68
2018-02-25T03:21:19.038Z,68
2018-02-25T03:26:19.017Z,68
2018-02-25T03:31:19.043Z,68
2018-02-25T03:36:19.076Z,68
2018-02-25T03:41:19.084Z,68
2018-02-25T03:46:19.137Z,68
2018-02-25T03:51:19.121Z,68
2018-02-25T03:56:19.157Z,68
2018-02-25T04:01:19.426Z,68
2018-02-25T04:06:19.664Z,68
2018-02-25T04:11:19.670Z,68
2018-02-25T04:16:19.769Z,68
2018-02-25T04:21:19.778Z,68
2018-02-25T04:26:19.742Z,68
2018-02-25T04:31:19.830Z,68
2018-02-25T04:36:19.406Z,68
2018-02-25T04:41:19.503Z,68
2018-02-25T04:46:19.583Z,68
2018-02-25T04:51:19.704Z,68
2018-02-25T04:56:19.803Z,68
2018-02-25T05:01:19.965Z,68
2018-02-25T05:06:18.950Z,68
2018-02-25T05:11:18.986Z,68
2018-02-25T05:16:19.032Z,68
2018-02-25T05:21:19.097Z,68
2018-02-25T05:26:19.264Z,68
2018-02-25T05:31:19.662Z,68
2018-02-25T05:36:19.713Z,68
2018-02-25T05:41:19.782Z,68
2018-02-25T05:46:19.877Z,68
2018-02-25T05:51:19.279Z,68
2018-02-25T05:56:19.346Z,68
2018-02-25T06:01:19.507Z,68
2018-02-25T06:06:19.543Z,68
2018-02-25T06:11:19.595Z,68
2018-02-25T06:16:19.717Z,68
2018-02-25T06:21:19.860Z,68
2018-02-25T06:26:20.008Z,68
2018-02-25T06:31:20.051Z,68
2018-02-25T06:36:19.142Z,68
2018-02-25T06:41:19.229Z,68
2018-02-25T06:46:19.300Z,68
2018-02-25T06:51:19.400Z,68
2018-02-25T06:56:19.439Z,68
2018-02-25T07:01:19.859Z,68
2018-02-25T07:06:20.067Z,68
2018-02-25T07:11:19.090Z,68
2018-02-25T07:16:19.205Z,68
2018-02-25T07:21:19.316Z,68
2018-02-25T07:26:19.349Z,68
2018-02-25T07:31:19.837Z,68
2018-02-25T07:36:19.873Z,68
2018-02-25T07:41:19.898Z,68
2018-02-25T07:46:20.024Z,68
2018-02-25T07:51:20.020Z,68
2018-02-25T07:56:20.069Z,45
2018-02-25T08:01:20.137Z,45
2018-02-25T08:06:19.162Z,315
2018-02-25T08:11:19.187Z,315
2018-02-25T08:16:19.286Z,315
2018-02-25T08:21:19.446Z,315
2018-02-25T08:26:19.504Z,315
2018-02-25T08:31:19.710Z,315
2018-02-25T08:36:19.845Z,292
2018-02-25T08:41:19.915Z,292
2018-02-25T08:46:20.022Z,315
2018-02-25T08:51:20.094Z,315
2018-02-25T08:56:19.204Z,292
2018-02-25T09:01:19.388Z,292
2018-02-25T09:06:19.522Z,315
2018-02-25T09:11:19.592Z,315
2018-02-25T09:16:19.673Z,292
2018-02-25T09:21:19.725Z,292
2018-02-25T09:26:19.756Z,292
2018-02-25T09:31:19.888Z,292
2018-02-25T09:36:19.952Z,315
2018-02-25T09:41:20.043Z,315
2018-02-25T09:46:20.125Z,315
2018-02-25T09:51:19.326Z,315
2018-02-25T09:56:19.433Z,315
2018-02-25T10:01:19.556Z,315
2018-02-25T10:06:19.680Z,315
2018-02-25T10:11:19.746Z,315
2018-02-25T10:16:19.881Z,315
2018-02-25T10:21:20.056Z,315
2018-02-25T10:26:20.080Z,315
2018-02-25T10:31:20.131Z,315
2018-02-25T10:36:20.286Z,315
2018-02-25T10:41:19.525Z,315
2018-02-25T10:46:19.601Z,315
2018-02-25T10:51:19.684Z,315
2018-02-25T10:56:19.767Z,315
2018-02-25T11:01:19.905Z,315
2018-02-25T11:06:19.990Z,315
2018-02-25T11:11:20.058Z,315
2018-02-25T11:16:20.171Z,338
2018-02-25T11:21:20.240Z,338
2018-02-25T11:26:20.279Z,315
2018-02-25T11:31:20.501Z,315
2018-02-25T11:36:19.558Z,315
2018-02-25T11:41:19.620Z,315
2018-02-25T11:46:19.656Z,338
2018-02-25T11:51:19.727Z,338
2018-02-25T11:56:19.796Z,0
2018-02-25T12:01:20.001Z,0
2018-02-25T12:06:20.181Z,0
2018-02-25T12:11:20.225Z,0
2018-02-25T12:16:20.343Z,315
2018-02-25T12:21:20.439Z,315
2018-02-25T12:26:19.855Z,338
2018-02-25T12:31:19.872Z,338
2018-02-25T12:36:20.016Z,315
2018-02-25T12:41:20.075Z,315
2018-02-25T12:46:20.197Z,68
2018-02-25T12:51:20.323Z,68
2018-02-25T12:56:20.363Z,45
2018-02-25T13:01:20.493Z,45
2018-02-25T13:06:19.568Z,22
2018-02-25T13:11:19.668Z,22
2018-02-25T13:16:19.757Z,90
2018-02-25T13:21:19.845Z,90
2018-02-25T13:26:19.975Z,68
2018-02-25T13:31:20.072Z,68
2018-02-25T13:36:20.102Z,315
2018-02-25T13:41:20.180Z,315
2018-02-25T13:46:20.275Z,68
2018-02-25T13:51:20.341Z,68
2018-02-25T13:56:20.454Z,292
2018-02-25T14:01:19.596Z,292
2018-02-25T14:06:19.683Z,22
2018-02-25T14:11:19.725Z,22
2018-02-25T14:16:19.802Z,315
2018-02-25T14:21:19.805Z,315
2018-02-25T14:26:19.883Z,0
2018-02-25T14:31:19.951Z,0
2018-02-25T14:36:20.078Z,68
2018-02-25T14:41:20.125Z,68
2018-02-25T14:46:20.241Z,45
2018-02-25T14:51:20.346Z,45
2018-02-25T14:56:20.430Z,338
2018-02-25T15:01:20.718Z,338
2018-02-25T15:06:19.815Z,0
2018-02-25T15:11:19.960Z,0
2018-02-25T15:16:20.002Z,0
2018-02-25T15:21:20.046Z,0
2018-02-25T15:26:20.179Z,0
2018-02-25T15:31:20.252Z,0
2018-02-25T15:36:20.363Z,338
2018-02-25T15:41:20.430Z,338
2018-02-25T15:46:20.474Z,68
2018-02-25T15:51:20.577Z,68
2018-02-25T15:56:20.707Z,45
2018-02-25T16:01:19.905Z,45
2018-02-25T16:06:20.012Z,45
2018-02-25T16:11:20.079Z,45
2018-02-25T16:16:20.198Z,68
2018-02-25T16:21:20.223Z,68
2018-02-25T16:26:20.246Z,68
2018-02-25T16:31:20.335Z,68
2018-02-25T16:36:20.392Z,45
2018-02-25T16:41:20.427Z,45
2018-02-25T16:46:20.571Z,68
2018-02-25T16:51:20.656Z,68
2018-02-25T16:56:19.767Z,45
2018-02-25T17:01:19.881Z,45
2018-02-25T17:06:19.939Z,68
2018-02-25T17:11:19.998Z,68
2018-02-25T17:16:20.060Z,22
2018-02-25T17:21:20.157Z,22
2018-02-25T17:26:20.215Z,68
2018-02-25T17:31:20.328Z,68
2018-02-25T17:36:20.375Z,45
2018-02-25T17:41:20.409Z,45
2018-02-25T17:46:20.451Z,68
2018-02-25T17:51:20.469Z,68
2018-02-25T17:56:20.516Z,45
2018-02-25T18:01:20.615Z,45
2018-02-25T18:06:20.685Z,68
2018-02-25T18:11:20.774Z,68
2018-02-25T18:16:19.874Z,68
2018-02-25T18:21:19.929Z,68
2018-02-25T18:26:20.007Z,68
2018-02-25T18:31:20.180Z,68
2018-02-25T18:36:20.275Z,68
2018-02-25T18:41:20.369Z,68
2018-02-25T18:46:20.384Z,68
2018-02-25T18:51:20.390Z,68
2018-02-25T18:56:20.431Z,68
2018-02-25T19:01:20.465Z,68
2018-02-25T19:06:20.505Z,0
2018-02-25T19:11:20.595Z,0
2018-02-25T19:16:20.670Z,68
2018-02-25T19:21:20.697Z,68
2018-02-25T19:26:20.782Z,68
2018-02-25T19:31:20.864Z,68
2018-02-25T19:36:19.927Z,45
2018-02-25T19:41:19.994Z,45
2018-02-25T19:46:20.025Z,68
2018-02-25T19:51:20.062Z,68
2018-02-25T19:56:20.099Z,45
2018-02-25T20:01:20.162Z,45
2018-02-25T20:06:20.302Z,338
2018-02-25T20:11:20.451Z,338
2018-02-25T20:16:20.480Z,68
2018-02-25T20:21:20.554Z,68
2018-02-25T20:26:20.665Z,68
2018-02-25T20:31:20.803Z,68
2018-02-25T20:36:20.909Z,22
2018-02-25T20:41:19.947Z,22
2018-02-25T20:46:20.136Z,338
2018-02-25T20:51:20.953Z,338
2018-02-25T20:56:19.976Z,338
2018-02-25T21:01:20.108Z,338
2018-02-25T21:06:20.121Z,0
2018-02-25T21:11:20.245Z,0
2018-02-25T21:16:20.374Z,0
2018-02-25T21:21:20.487Z,0
2018-02-25T21:26:20.515Z,0
2018-02-25T21:31:20.596Z,0
2018-02-25T21:36:20.633Z,0
2018-02-25T21:41:20.700Z,0
2018-02-25T21:46:20.795Z,45
2018-02-25T21:51:20.863Z,45
2018-02-25T21:56:20.860Z,45
2018-02-25T22:01:21.075Z,45
2018-02-25T22:06:20.463Z,45
2018-02-25T22:11:20.766Z,45
2018-02-25T22:16:20.236Z,45
2018-02-25T22:21:20.450Z,45
2018-02-25T22:26:20.501Z,45
2018-02-25T22:31:20.625Z,45
2018-02-25T22:36:20.673Z,45
2018-02-25T22:41:20.745Z,45
2018-02-25T22:46:20.760Z,45
2018-02-25T22:51:20.808Z,45
2018-02-25T22:56:20.933Z,45
2018-02-25T23:01:21.208Z,45
2018-02-25T23:06:20.280Z,68
2018-02-25T23:11:20.422Z,68
2018-02-25T23:16:20.489Z,68
2018-02-25T23:21:20.612Z,68
2018-02-25T23:26:20.627Z,68
2018-02-25T23:31:20.758Z,68
2018-02-25T23:36:20.806Z,45
2018-02-25T23:41:20.866Z,45
2018-02-25T23:46:20.988Z,45
2018-02-25T23:51:21.044Z,45
2018-02-25T23:56:21.100Z,45
